フナフティ島 の空港の天気 - METARとTAF

フナフティ国際空港 ( NGFU / FUN ) - ツバル フナフティ島
飛行場実況気象(Metar)
観測時間09/30 00:00 TVT (09/29 12:00 UTC)
風向・風速東北東 4m/s
視程10km以上
天気現象
全天の4割程度の雲 雲底高度 580m
気温28℃
湿度70%
気圧1010hPa
METARNGFU 291200Z 07008KT 9999 SCT019 28/22 Q1010
過去の天気等 Google飛行場航空写真 Wunderground天気予報

過去48時間のMETAR

飛行場予報(TAF)
発表時間: 9/29 23:19 TVT (9/29 11:19 UTC)
予報対象時間: 30日0時 TVT ~ 1日0時 TVT
風向・風速東北東 5m/s
視程10km以上
少しの雲 雲底高度 610m
TAF NGFU 291119Z 2912/3012 06010KT 9999 FEW020